createdAt,value
2023-03-22T00:02:21.087Z,100023.30
2023-03-22T00:04:48.367Z,100024.01
2023-03-22T00:07:15.348Z,100025.60
2023-03-22T00:09:42.509Z,100025.61
2023-03-22T00:12:11.366Z,100028.08
2023-03-22T00:14:41.336Z,100023.98
2023-03-22T00:17:07.987Z,100021.63
2023-03-22T00:19:35.066Z,100025.16
2023-03-22T00:22:03.091Z,100019.42
2023-03-22T00:24:34.352Z,100015.68
2023-03-22T00:27:01.675Z,100014.70
2023-03-22T00:29:28.917Z,100013.02
2023-03-22T00:31:56.229Z,100008.11
2023-03-22T00:34:23.047Z,100007.62
2023-03-22T00:36:51.310Z,100010.69
2023-03-22T00:39:19.032Z,100011.40
2023-03-22T00:41:47.235Z,100011.70
2023-03-22T00:44:14.767Z,100015.59
2023-03-22T00:46:42.098Z,100010.86
2023-03-22T00:49:09.214Z,100012.87
2023-03-22T00:51:35.875Z,100013.41
2023-03-22T00:54:04.009Z,100010.05
2023-03-22T00:56:33.330Z,100016.19
2023-03-22T00:59:06.515Z,100019.17
2023-03-22T01:01:38.657Z,100016.58
2023-03-22T01:04:05.994Z,100019.86
2023-03-22T01:06:33.602Z,100023.90
2023-03-22T01:09:01.169Z,100019.61
2023-03-22T01:11:28.637Z,100020.35
2023-03-22T01:13:56.629Z,100019.89
2023-03-22T01:16:24.752Z,100020.95
2023-03-22T01:18:51.786Z,100022.34
2023-03-22T01:21:18.937Z,100022.27
2023-03-22T01:23:46.252Z,100025.52
2023-03-22T01:26:13.504Z,100019.21
2023-03-22T01:28:40.797Z,100023.61
2023-03-22T01:31:07.998Z,100025.34
2023-03-22T01:33:35.312Z,100030.10
2023-03-22T01:36:03.618Z,100031.11
2023-03-22T01:38:32.659Z,100033.11
2023-03-22T01:41:01.859Z,100037.61
2023-03-22T01:43:31.564Z,100040.92
2023-03-22T01:45:59.592Z,100044.97
2023-03-22T01:48:36.895Z,100045.35
2023-03-22T01:51:08.300Z,100045.46
2023-03-22T01:53:48.454Z,100051.77
2023-03-22T01:56:17.020Z,100053.64
2023-03-22T01:58:44.208Z,100055.08
2023-03-22T02:01:11.839Z,100056.04
2023-03-22T02:04:14.871Z,100059.22
2023-03-22T02:06:41.840Z,100059.61
2023-03-22T02:09:14.062Z,100060.83
2023-03-22T02:11:45.681Z,100058.66
2023-03-22T02:14:45.349Z,100057.83
2023-03-22T02:18:07.264Z,100054.11
2023-03-22T02:20:54.608Z,100054.98
2023-03-22T02:23:54.006Z,100056.15
2023-03-22T02:26:58.899Z,100062.98
2023-03-22T02:29:48.703Z,100068.00
2023-03-22T02:32:34.449Z,100066.13
2023-03-22T02:35:20.951Z,100067.26
2023-03-22T02:38:13.992Z,100068.40
2023-03-22T02:40:55.685Z,100071.30
2023-03-22T02:43:37.996Z,100070.02
2023-03-22T02:46:07.167Z,100074.17
2023-03-22T02:48:40.264Z,100076.59
2023-03-22T02:51:11.408Z,100075.98
2023-03-22T02:53:44.175Z,100078.48
2023-03-22T02:56:14.265Z,100085.52
2023-03-22T02:58:51.384Z,100087.54
2023-03-22T03:01:30.156Z,100084.60
2023-03-22T03:04:00.703Z,100089.17
2023-03-22T03:06:30.603Z,100092.47
2023-03-22T03:08:57.842Z,100095.91
2023-03-22T03:11:25.991Z,100093.34
2023-03-22T03:13:53.293Z,100098.45
2023-03-22T03:16:21.533Z,100096.89
2023-03-22T03:19:07.373Z,100099.11
2023-03-22T03:21:53.067Z,100101.50
2023-03-22T03:24:32.557Z,100103.53
2023-03-22T03:27:25.147Z,100103.95
2023-03-22T03:30:01.379Z,100102.46
2023-03-22T03:32:34.934Z,100104.83
2023-03-22T03:35:06.619Z,100105.99
2023-03-22T03:37:41.669Z,100106.80
2023-03-22T03:40:20.832Z,100103.02
2023-03-22T03:42:49.954Z,100103.44
2023-03-22T03:45:16.898Z,100105.08
2023-03-22T03:47:46.143Z,100100.29
2023-03-22T03:50:15.201Z,100097.77
2023-03-22T03:52:44.528Z,100093.54
2023-03-22T03:55:11.584Z,100089.70
2023-03-22T03:57:39.845Z,100090.48
2023-03-22T04:00:08.807Z,100090.23
2023-03-22T04:02:46.086Z,100097.30
2023-03-22T04:05:26.100Z,100103.30
2023-03-22T04:07:52.962Z,100106.70
2023-03-22T04:10:19.926Z,100107.95
2023-03-22T04:12:49.233Z,100115.12
2023-03-22T04:15:18.213Z,100121.86
2023-03-22T04:17:48.120Z,100125.23
2023-03-22T04:20:16.462Z,100123.30
2023-03-22T04:22:46.228Z,100123.29
2023-03-22T04:25:18.690Z,100127.29
2023-03-22T04:27:55.180Z,100124.07
2023-03-22T04:30:24.019Z,100129.27
2023-03-22T04:33:11.149Z,100134.20
2023-03-22T04:35:58.776Z,100135.83
2023-03-22T04:38:33.485Z,100138.66
2023-03-22T04:41:00.760Z,100144.83
2023-03-22T04:43:50.365Z,100150.96
2023-03-22T04:46:20.679Z,100155.18
2023-03-22T04:48:52.901Z,100160.17
2023-03-22T04:51:20.313Z,100157.34
2023-03-22T04:53:58.880Z,100159.14
2023-03-22T04:56:25.643Z,100162.64
2023-03-22T04:58:52.615Z,100162.58
2023-03-22T05:01:22.749Z,100160.96
2023-03-22T05:03:56.065Z,100165.06
2023-03-22T05:06:22.828Z,100169.51
2023-03-22T05:09:00.414Z,100172.38
2023-03-22T05:11:27.637Z,100170.59
2023-03-22T05:14:12.028Z,100175.59
2023-03-22T05:16:41.187Z,100175.02
2023-03-22T05:19:13.236Z,100175.94
2023-03-22T05:21:43.613Z,100173.02
2023-03-22T05:24:10.585Z,100175.96
2023-03-22T05:26:41.652Z,100173.41
2023-03-22T05:29:10.440Z,100176.20
2023-03-22T05:32:00.105Z,100180.34
2023-03-22T05:34:34.730Z,100187.02
2023-03-22T05:37:06.040Z,100192.45
2023-03-22T05:39:55.022Z,100191.70
2023-03-22T05:42:25.837Z,100192.54
2023-03-22T05:44:52.560Z,100195.77
2023-03-22T05:47:20.445Z,100200.07
2023-03-22T05:50:00.836Z,100204.67
2023-03-22T05:52:28.174Z,100204.23
2023-03-22T05:55:13.091Z,100198.99
2023-03-22T05:57:44.261Z,100201.95
2023-03-22T06:00:15.659Z,100201.61
2023-03-22T06:02:56.093Z,100203.02
2023-03-22T06:05:23.652Z,100205.58
2023-03-22T06:07:51.539Z,100206.84
2023-03-22T06:10:20.659Z,100206.33
2023-03-22T06:12:54.824Z,100209.61
2023-03-22T06:15:27.407Z,100210.45
2023-03-22T06:18:03.863Z,100211.73
2023-03-22T06:20:36.182Z,100208.34
2023-03-22T06:23:08.994Z,100208.16
2023-03-22T06:25:36.136Z,100210.38
2023-03-22T06:28:03.379Z,100211.57
2023-03-22T06:30:30.918Z,100214.45
2023-03-22T06:33:21.081Z,100216.66
2023-03-22T06:35:53.055Z,100216.81
2023-03-22T06:38:27.957Z,100218.11
2023-03-22T06:40:55.738Z,100220.89
2023-03-22T06:43:23.947Z,100221.20
2023-03-22T06:45:52.155Z,100227.98
2023-03-22T06:48:23.107Z,100233.91
2023-03-22T06:50:59.065Z,100238.54
2023-03-22T06:53:31.650Z,100245.16
2023-03-22T06:55:58.501Z,100242.83
2023-03-22T06:58:26.502Z,100248.05
2023-03-22T07:00:55.645Z,100247.14
2023-03-22T07:03:26.416Z,100250.48
2023-03-22T07:06:04.261Z,100256.25
2023-03-22T07:08:34.941Z,100257.34
2023-03-22T07:11:07.133Z,100256.39
2023-03-22T07:13:36.217Z,100257.77
2023-03-22T07:16:11.501Z,100261.66
2023-03-22T07:19:01.761Z,100264.75
2023-03-22T07:21:29.920Z,100266.73
2023-03-22T07:23:59.772Z,100267.64
2023-03-22T07:26:30.039Z,100266.85
2023-03-22T07:29:04.200Z,100266.69
2023-03-22T07:31:36.027Z,100265.84
2023-03-22T07:34:06.267Z,100261.40
2023-03-22T07:36:44.118Z,100259.93
2023-03-22T07:39:17.177Z,100258.95
2023-03-22T07:41:47.607Z,100255.08
2023-03-22T07:44:24.864Z,100254.92
2023-03-22T07:47:07.598Z,100254.94
2023-03-22T07:50:00.771Z,100253.92
2023-03-22T07:52:39.369Z,100251.85
2023-03-22T07:55:19.281Z,100256.87
2023-03-22T07:57:57.210Z,100256.95
2023-03-22T08:00:30.781Z,100255.40
2023-03-22T08:03:27.333Z,100257.61
2023-03-22T08:06:10.269Z,100256.27
2023-03-22T08:08:40.573Z,100256.71
2023-03-22T08:11:12.009Z,100259.31
2023-03-22T08:13:45.147Z,100257.17
2023-03-22T08:16:16.212Z,100258.53
2023-03-22T08:18:47.065Z,100257.40
2023-03-22T08:21:17.491Z,100255.35
2023-03-22T08:23:49.925Z,100254.35
2023-03-22T08:26:49.497Z,100250.05
2023-03-22T08:29:35.918Z,100252.48
2023-03-22T08:32:05.951Z,100254.23
2023-03-22T08:34:38.914Z,100251.51
2023-03-22T08:37:08.150Z,100250.93
2023-03-22T08:39:38.780Z,100254.50
2023-03-22T08:42:37.736Z,100256.09
2023-03-22T08:45:10.938Z,100255.43
2023-03-22T08:47:50.763Z,100254.95
2023-03-22T08:50:20.355Z,100253.95
2023-03-22T08:53:03.097Z,100253.77
2023-03-22T08:55:40.506Z,100251.55
2023-03-22T08:58:20.464Z,100252.93
2023-03-22T09:01:21.270Z,100246.83
2023-03-22T09:03:56.564Z,100247.17
2023-03-22T09:06:28.249Z,100248.02
2023-03-22T09:09:00.682Z,100246.52
2023-03-22T09:11:29.442Z,100243.52
2023-03-22T09:13:57.715Z,100244.03
2023-03-22T09:16:29.165Z,100241.40
2023-03-22T09:19:02.046Z,100240.55
2023-03-22T09:21:32.374Z,100241.72
2023-03-22T09:24:17.407Z,100238.30
2023-03-22T09:26:51.409Z,100235.64
2023-03-22T09:29:22.906Z,100236.02
2023-03-22T09:31:53.190Z,100237.35
2023-03-22T09:34:23.117Z,100239.32
2023-03-22T09:36:52.174Z,100244.20
2023-03-22T09:39:22.236Z,100245.10
2023-03-22T09:41:53.930Z,100246.89
2023-03-22T09:44:36.030Z,100249.30
2023-03-22T09:47:04.892Z,100249.30
2023-03-22T09:49:52.601Z,100250.34
2023-03-22T09:52:20.257Z,100251.11
2023-03-22T09:54:47.184Z,100252.70
2023-03-22T09:57:23.969Z,100251.11
2023-03-22T10:00:13.995Z,100248.91
2023-03-22T10:02:58.978Z,100248.45
2023-03-22T10:05:35.260Z,100247.95
2023-03-22T10:08:24.329Z,100245.48
2023-03-22T10:10:52.241Z,100246.08
2023-03-22T10:13:46.613Z,100240.77
2023-03-22T10:16:18.968Z,100232.64
2023-03-22T10:18:49.188Z,100228.42
2023-03-22T10:22:32.882Z,100227.85
2023-03-22T10:29:50.727Z,100222.90
2023-03-22T10:32:57.590Z,100220.80
2023-03-22T10:35:25.035Z,100220.68
2023-03-22T10:37:51.794Z,100219.60
2023-03-22T10:40:20.612Z,100219.53
2023-03-22T10:42:52.629Z,100221.55
2023-03-22T10:45:19.593Z,100219.47
2023-03-22T10:48:05.033Z,100214.95
2023-03-22T10:50:32.632Z,100217.60
2023-03-22T10:53:23.048Z,100216.60
2023-03-22T10:55:50.375Z,100214.24
2023-03-22T10:58:21.337Z,100212.24
2023-03-22T11:00:50.042Z,100215.02
2023-03-22T11:03:36.157Z,100217.61
2023-03-22T11:06:17.147Z,100214.92
2023-03-22T11:08:49.000Z,100217.58
2023-03-22T11:11:38.328Z,100212.43
2023-03-22T11:14:08.014Z,100209.98
2023-03-22T11:17:06.068Z,100210.95
2023-03-22T11:19:34.024Z,100210.90
2023-03-22T11:22:04.572Z,100204.83
2023-03-22T11:24:32.533Z,100199.55
2023-03-22T11:27:05.216Z,100199.98
2023-03-22T11:29:49.123Z,100198.01
2023-03-22T11:32:28.484Z,100197.34
2023-03-22T11:35:19.752Z,100196.67
2023-03-22T11:37:51.317Z,100195.54
2023-03-22T11:40:21.924Z,100192.48
2023-03-22T11:42:51.691Z,100187.45
2023-03-22T11:45:27.515Z,100192.15
2023-03-22T11:47:54.577Z,100192.13
2023-03-22T11:50:29.650Z,100195.59
2023-03-22T11:52:56.602Z,100195.46
2023-03-22T11:55:24.070Z,100196.25
2023-03-22T11:57:51.221Z,100191.41
2023-03-22T12:00:20.871Z,100191.56
2023-03-22T12:02:55.434Z,100190.55
2023-03-22T12:05:28.102Z,100190.45
2023-03-22T12:08:18.633Z,100188.98
2023-03-22T12:10:48.455Z,100188.83
2023-03-22T12:13:23.089Z,100190.80
2023-03-22T12:15:56.078Z,100190.98
2023-03-22T12:18:41.143Z,100190.24
2023-03-22T12:21:09.439Z,100185.63
2023-03-22T12:23:37.441Z,100186.09
2023-03-22T12:26:11.444Z,100184.04
2023-03-22T12:29:02.505Z,100181.08
2023-03-22T12:31:31.623Z,100182.20
2023-03-22T12:34:02.474Z,100183.59
2023-03-22T12:36:42.445Z,100179.86
2023-03-22T12:39:26.388Z,100176.23
2023-03-22T12:41:53.592Z,100173.39
2023-03-22T12:44:28.814Z,100174.80
2023-03-22T12:46:56.883Z,100169.36
2023-03-22T12:49:30.557Z,100168.81
2023-03-22T12:52:10.407Z,100170.42
2023-03-22T12:54:37.242Z,100169.73
2023-03-22T12:57:04.108Z,100172.34
2023-03-22T12:59:32.570Z,100168.36
2023-03-22T13:02:17.805Z,100171.77
2023-03-22T13:04:51.794Z,100168.13
2023-03-22T13:07:30.566Z,100168.03
2023-03-22T13:10:00.428Z,100163.74
2023-03-22T13:12:41.659Z,100158.23
2023-03-22T13:15:56.337Z,100158.63
2023-03-22T13:18:35.161Z,100155.10
2023-03-22T13:21:31.184Z,100155.75
2023-03-22T13:24:00.810Z,100155.14
2023-03-22T13:26:34.610Z,100150.23
2023-03-22T13:29:01.562Z,100154.45
2023-03-22T13:31:42.929Z,100153.95
2023-03-22T13:34:15.538Z,100154.36
2023-03-22T13:36:49.145Z,100156.58
2023-03-22T13:39:15.983Z,100161.59
2023-03-22T13:41:45.505Z,100164.03
2023-03-22T13:44:25.790Z,100164.23
2023-03-22T13:46:52.800Z,100164.72
2023-03-22T13:49:53.586Z,100164.73
2023-03-22T13:52:35.186Z,100166.52
2023-03-22T13:55:02.646Z,100167.70
2023-03-22T14:01:49.076Z,100166.36
2023-03-22T14:04:22.006Z,100165.38
2023-03-22T14:06:54.516Z,100165.55
2023-03-22T14:09:31.156Z,100166.90
2023-03-22T14:12:49.892Z,100164.04
2023-03-22T14:15:30.767Z,100170.17
2023-03-22T14:18:07.125Z,100165.67
2023-03-22T14:20:35.625Z,100160.59
